createdAt,value
2022-08-25T00:01:24.215Z,18.32
2022-08-25T00:03:54.548Z,18.30
2022-08-25T00:06:21.454Z,18.31
2022-08-25T00:08:49.265Z,18.30
2022-08-25T00:11:23.631Z,18.29
2022-08-25T00:13:56.285Z,18.27
2022-08-25T00:16:23.814Z,18.27
2022-08-25T00:18:53.849Z,18.25
2022-08-25T00:21:23.262Z,18.23
2022-08-25T00:23:50.651Z,18.20
2022-08-25T00:26:18.247Z,18.17
2022-08-25T00:28:45.048Z,18.15
2022-08-25T00:31:17.723Z,18.12
2022-08-25T00:33:45.767Z,18.12
2022-08-25T00:36:13.811Z,18.09
2022-08-25T00:38:42.265Z,18.07
2022-08-25T00:41:11.742Z,18.05
2022-08-25T00:43:41.795Z,18.03
2022-08-25T00:46:10.121Z,18.02
2022-08-25T00:48:38.772Z,18.00
2022-08-25T00:51:09.452Z,17.98
2022-08-25T00:53:37.195Z,17.95
2022-08-25T00:56:04.099Z,17.91
2022-08-25T00:58:33.837Z,17.89
2022-08-25T01:01:00.880Z,17.86
2022-08-25T01:03:33.082Z,17.83
2022-08-25T01:06:04.468Z,17.80
2022-08-25T01:08:32.945Z,17.77
2022-08-25T01:11:04.389Z,17.73
2022-08-25T01:13:36.557Z,17.69
2022-08-25T01:16:03.837Z,17.65
2022-08-25T01:18:46.338Z,17.62
2022-08-25T01:21:14.139Z,17.60
2022-08-25T01:23:41.643Z,17.58
2022-08-25T01:26:14.080Z,17.56
2022-08-25T01:29:02.361Z,17.54
2022-08-25T01:31:30.407Z,17.51
2022-08-25T01:33:57.944Z,17.48
2022-08-25T01:36:26.895Z,17.45
2022-08-25T01:38:54.549Z,17.44
2022-08-25T01:41:39.894Z,17.42
2022-08-25T01:44:10.885Z,17.40
2022-08-25T01:46:43.437Z,17.38
2022-08-25T01:49:10.411Z,17.36
2022-08-25T01:51:46.633Z,17.35
2022-08-25T01:54:13.519Z,17.34
2022-08-25T01:56:40.267Z,17.33
2022-08-25T01:59:06.958Z,17.32
2022-08-25T02:01:33.983Z,17.30
2022-08-25T02:04:00.881Z,17.28
2022-08-25T02:06:32.206Z,17.26
2022-08-25T02:09:14.913Z,17.25
2022-08-25T02:11:44.043Z,17.23
2022-08-25T02:14:11.887Z,17.21
2022-08-25T02:16:41.436Z,17.19
2022-08-25T02:19:11.563Z,17.17
2022-08-25T02:21:38.914Z,17.16
2022-08-25T02:24:06.957Z,17.14
2022-08-25T02:26:34.312Z,17.13
2022-08-25T02:29:01.728Z,17.12
2022-08-25T02:31:28.642Z,17.11
2022-08-25T02:33:56.643Z,17.10
2022-08-25T02:36:24.011Z,17.08
2022-08-25T02:38:50.764Z,17.05
2022-08-25T02:41:20.383Z,17.04
2022-08-25T02:43:48.468Z,17.04
2022-08-25T02:46:19.390Z,17.05
2022-08-25T02:48:47.225Z,17.04
2022-08-25T02:51:14.738Z,17.03
2022-08-25T02:53:45.304Z,17.03
2022-08-25T02:56:13.480Z,17.02
2022-08-25T02:58:42.096Z,17.02
2022-08-25T03:01:11.493Z,17.01
2022-08-25T03:03:43.903Z,16.99
2022-08-25T03:06:12.117Z,16.97
2022-08-25T03:08:39.593Z,16.95
2022-08-25T03:11:06.900Z,16.94
2022-08-25T03:13:34.719Z,16.91
2022-08-25T03:16:03.748Z,16.89
2022-08-25T03:18:31.121Z,16.86
2022-08-25T03:20:58.964Z,16.84
2022-08-25T03:23:26.227Z,16.80
2022-08-25T03:26:14.753Z,16.78
2022-08-25T03:28:41.693Z,16.75
2022-08-25T03:31:09.342Z,16.72
2022-08-25T03:33:36.327Z,16.69
2022-08-25T03:36:03.678Z,16.67
2022-08-25T03:38:30.525Z,16.64
2022-08-25T03:40:57.281Z,16.62
2022-08-25T03:43:24.104Z,16.60
2022-08-25T03:45:51.416Z,16.58
2022-08-25T03:48:18.272Z,16.56
2022-08-25T03:50:50.615Z,16.54
2022-08-25T03:53:20.053Z,16.53
2022-08-25T03:55:47.301Z,16.52
2022-08-25T03:58:14.082Z,16.52
2022-08-25T04:00:41.400Z,16.52
2022-08-25T04:03:08.055Z,16.53
2022-08-25T04:05:34.879Z,16.56
2022-08-25T04:08:01.989Z,16.58
2022-08-25T04:10:29.414Z,16.62
2022-08-25T04:12:56.094Z,16.65
2022-08-25T04:15:23.915Z,16.69
2022-08-25T04:17:55.583Z,16.77
2022-08-25T04:20:22.709Z,16.83
2022-08-25T04:22:49.381Z,16.90
2022-08-25T04:25:16.337Z,16.96
2022-08-25T04:27:42.977Z,17.04
2022-08-25T04:30:10.456Z,17.12
2022-08-25T04:32:37.177Z,17.21
2022-08-25T04:35:05.622Z,17.32
2022-08-25T04:37:32.873Z,17.41
2022-08-25T04:39:59.745Z,17.49
2022-08-25T04:42:26.706Z,17.56
2022-08-25T04:44:53.857Z,17.63
2022-08-25T04:47:20.770Z,17.70
2022-08-25T04:49:47.376Z,17.80
2022-08-25T04:52:14.697Z,17.90
2022-08-25T04:54:42.395Z,18.00
2022-08-25T04:57:09.372Z,18.08
2022-08-25T04:59:36.291Z,18.15
2022-08-25T05:02:04.683Z,18.21
2022-08-25T05:04:32.865Z,18.29
2022-08-25T05:07:00.617Z,18.36
2022-08-25T05:09:28.000Z,18.43
2022-08-25T05:11:54.895Z,18.49
2022-08-25T05:14:26.250Z,18.58
2022-08-25T05:16:54.901Z,18.60
2022-08-25T05:19:23.599Z,18.62
2022-08-25T05:21:51.029Z,18.66
2022-08-25T05:24:18.457Z,18.72
2022-08-25T05:26:45.407Z,18.77
2022-08-25T05:29:12.268Z,18.83
2022-08-25T05:31:48.315Z,18.90
2022-08-25T05:34:18.297Z,18.90
2022-08-25T05:36:45.354Z,18.87
2022-08-25T05:39:12.442Z,18.85
2022-08-25T05:41:39.304Z,18.81
2022-08-25T05:44:06.210Z,18.80
2022-08-25T05:46:33.426Z,18.83
2022-08-25T05:49:01.379Z,18.86
2022-08-25T05:51:28.426Z,18.90
2022-08-25T05:53:55.061Z,18.96
2022-08-25T05:56:21.727Z,19.03
2022-08-25T05:58:49.580Z,19.16
2022-08-25T06:01:43.445Z,19.33
2022-08-25T06:04:13.691Z,19.55
2022-08-25T06:06:40.438Z,19.72
2022-08-25T06:09:09.059Z,19.91
2022-08-25T06:11:40.436Z,20.13
2022-08-25T06:14:10.686Z,20.36
2022-08-25T06:16:38.526Z,20.61
2022-08-25T06:19:07.294Z,20.89
2022-08-25T06:21:34.072Z,21.16
2022-08-25T06:24:01.746Z,21.41
2022-08-25T06:26:28.868Z,21.64
2022-08-25T06:28:55.602Z,21.86
2022-08-25T06:31:22.434Z,22.05
2022-08-25T06:33:49.698Z,22.28
2022-08-25T06:36:17.186Z,22.53
2022-08-25T06:38:44.023Z,22.80
2022-08-25T06:41:12.250Z,23.06
2022-08-25T06:43:45.065Z,23.33
2022-08-25T06:46:20.980Z,23.54
2022-08-25T06:48:48.336Z,23.75
2022-08-25T06:51:18.425Z,24.01
2022-08-25T06:53:48.454Z,24.28
2022-08-25T06:56:16.968Z,24.55
2022-08-25T06:58:44.220Z,24.84
2022-08-25T07:01:20.185Z,25.08
2022-08-25T07:03:48.505Z,25.38
2022-08-25T07:06:18.510Z,25.64
2022-08-25T07:08:46.849Z,25.88
2022-08-25T07:11:16.422Z,26.14
2022-08-25T07:13:44.994Z,26.44
2022-08-25T07:16:12.315Z,26.72
2022-08-25T07:18:39.173Z,27.00
2022-08-25T07:21:08.862Z,27.21
2022-08-25T07:23:37.103Z,27.36
2022-08-25T07:26:35.965Z,27.46
2022-08-25T07:29:03.125Z,27.57
2022-08-25T07:31:30.750Z,27.66
2022-08-25T07:34:16.668Z,27.83
2022-08-25T07:36:44.381Z,28.03
2022-08-25T07:39:11.433Z,28.18
2022-08-25T07:41:41.328Z,28.31
2022-08-25T07:44:10.481Z,28.36
2022-08-25T07:46:38.368Z,28.34
2022-08-25T07:49:13.326Z,28.39
2022-08-25T07:52:03.631Z,28.46
2022-08-25T07:54:34.386Z,28.51
2022-08-25T07:57:03.352Z,28.52
2022-08-25T07:59:30.520Z,28.51
2022-08-25T08:01:57.490Z,28.56
2022-08-25T08:04:24.753Z,28.65
2022-08-25T08:06:51.455Z,28.78
2022-08-25T08:09:18.047Z,28.90
2022-08-25T08:11:53.664Z,29.02
2022-08-25T08:14:30.162Z,29.18
2022-08-25T08:16:56.971Z,29.31
2022-08-25T08:19:23.675Z,29.43
2022-08-25T08:21:50.265Z,29.61
2022-08-25T08:24:40.762Z,29.73
2022-08-25T08:27:07.823Z,29.86
2022-08-25T08:29:35.698Z,30.03
2022-08-25T08:32:04.033Z,30.25
2022-08-25T08:34:33.030Z,30.48
2022-08-25T08:37:00.053Z,30.66
2022-08-25T08:39:28.283Z,30.75
2022-08-25T08:42:21.622Z,30.76
2022-08-25T08:45:03.765Z,30.86
2022-08-25T08:47:52.117Z,30.99
2022-08-25T08:50:42.709Z,31.27
2022-08-25T08:53:44.253Z,31.58
2022-08-25T08:56:36.476Z,31.88
2022-08-25T08:59:12.637Z,32.13
2022-08-25T09:01:47.817Z,32.41
2022-08-25T09:05:03.848Z,32.71
2022-08-25T09:07:39.322Z,32.77
2022-08-25T09:10:10.246Z,32.78
2022-08-25T09:16:01.980Z,32.65
2022-08-25T09:19:03.953Z,32.64
2022-08-25T09:21:54.380Z,32.74
2022-08-25T09:24:41.987Z,32.88
2022-08-25T09:27:29.637Z,33.06
2022-08-25T09:29:56.616Z,33.13
2022-08-25T09:32:31.444Z,33.15
2022-08-25T09:35:01.147Z,33.12
2022-08-25T09:37:27.860Z,33.08
2022-08-25T09:39:55.202Z,33.07
2022-08-25T09:42:49.666Z,33.03
2022-08-25T09:45:32.295Z,32.88
2022-08-25T09:47:59.850Z,32.84
2022-08-25T09:50:32.530Z,32.91
2022-08-25T09:53:17.407Z,32.96
2022-08-25T09:55:59.884Z,33.05
2022-08-25T09:58:27.710Z,33.06
2022-08-25T10:01:04.881Z,33.15
2022-08-25T10:03:32.302Z,33.27
2022-08-25T10:06:13.227Z,33.42
2022-08-25T10:08:42.825Z,33.71
2022-08-25T10:11:14.768Z,34.02
2022-08-25T10:13:47.625Z,34.34
2022-08-25T10:16:35.815Z,34.58
2022-08-25T10:19:08.108Z,34.77
2022-08-25T10:21:37.511Z,35.01
2022-08-25T10:24:05.477Z,35.31
2022-08-25T10:26:50.409Z,35.56
2022-08-25T10:29:35.264Z,35.63
2022-08-25T10:32:18.134Z,35.52
2022-08-25T10:34:52.585Z,35.20
2022-08-25T10:37:41.719Z,35.01
2022-08-25T10:40:38.972Z,34.68
2022-08-25T10:43:11.599Z,34.31
2022-08-25T10:46:01.896Z,34.04
2022-08-25T10:48:37.315Z,33.89
2022-08-25T10:51:25.505Z,33.82
2022-08-25T10:54:10.664Z,33.64
2022-08-25T10:56:42.787Z,33.56
2022-08-25T10:59:12.327Z,33.38
2022-08-25T11:02:06.660Z,33.44
2022-08-25T11:04:52.305Z,33.47
2022-08-25T11:07:24.843Z,33.49
2022-08-25T11:09:57.040Z,33.72
2022-08-25T11:12:31.839Z,33.80
2022-08-25T11:15:03.395Z,33.84
2022-08-25T11:17:50.130Z,33.86
2022-08-25T11:20:40.776Z,33.98
2022-08-25T11:23:22.735Z,34.04
2022-08-25T11:25:52.945Z,34.15
2022-08-25T11:28:44.173Z,34.24
2022-08-25T11:31:11.696Z,34.00
2022-08-25T11:33:38.736Z,34.06
2022-08-25T11:36:32.294Z,34.29
2022-08-25T11:39:34.511Z,34.39
2022-08-25T11:42:19.729Z,34.56
2022-08-25T11:45:25.913Z,34.60
2022-08-25T11:48:25.428Z,34.43
2022-08-25T11:51:02.907Z,34.37
2022-08-25T11:53:42.169Z,34.45
2022-08-25T11:56:30.968Z,34.61
2022-08-25T11:58:59.383Z,34.74
2022-08-25T12:01:42.623Z,34.72
2022-08-25T12:04:37.732Z,34.80
2022-08-25T12:07:19.785Z,34.76
2022-08-25T12:09:49.360Z,34.70
2022-08-25T12:12:42.087Z,34.72
2022-08-25T12:15:23.031Z,34.83
2022-08-25T12:18:15.707Z,34.95
2022-08-25T12:20:54.695Z,35.09
2022-08-25T12:23:35.573Z,35.17
2022-08-25T12:26:10.972Z,35.25
2022-08-25T12:29:16.056Z,35.36
2022-08-25T12:32:10.896Z,35.15
2022-08-25T12:35:08.408Z,35.11
2022-08-25T12:38:04.880Z,35.20
2022-08-25T12:40:52.577Z,35.21
2022-08-25T12:43:19.659Z,35.21
2022-08-25T12:45:48.829Z,35.39
2022-08-25T12:48:27.583Z,35.59
2022-08-25T12:51:02.061Z,35.57
2022-08-25T12:53:38.433Z,35.46
2022-08-25T12:56:08.017Z,35.20
2022-08-25T12:59:02.339Z,35.16
2022-08-25T13:01:36.150Z,35.24
2022-08-25T13:04:37.781Z,35.31
2022-08-25T13:07:39.377Z,35.40
2022-08-25T13:10:27.825Z,35.64
2022-08-25T13:13:04.429Z,35.91
2022-08-25T13:15:41.238Z,35.94
2022-08-25T13:18:18.914Z,35.85
2022-08-25T13:20:48.438Z,35.82
2022-08-25T13:23:21.694Z,35.97
2022-08-25T13:25:51.659Z,36.02
2022-08-25T13:28:31.339Z,35.99
2022-08-25T13:31:05.013Z,35.82
2022-08-25T13:33:33.601Z,35.76
2022-08-25T13:36:22.561Z,35.84
2022-08-25T13:38:49.572Z,35.85
2022-08-25T13:41:20.754Z,35.87
2022-08-25T13:43:47.420Z,35.94
2022-08-25T13:46:18.866Z,36.05
2022-08-25T13:48:49.508Z,36.24
2022-08-25T13:51:21.919Z,36.38
2022-08-25T13:54:00.669Z,36.42
2022-08-25T13:56:40.051Z,36.51
2022-08-25T13:59:25.164Z,36.57
2022-08-25T14:01:54.604Z,36.65
2022-08-25T14:04:31.108Z,36.71
2022-08-25T14:07:08.497Z,36.70
2022-08-25T14:09:51.576Z,36.63
2022-08-25T14:12:42.014Z,36.66
2022-08-25T14:15:17.304Z,36.61
2022-08-25T14:17:48.344Z,36.53
2022-08-25T14:20:26.653Z,36.40
2022-08-25T14:22:58.104Z,36.37
2022-08-25T14:25:27.268Z,36.39
2022-08-25T14:28:08.532Z,36.44
2022-08-25T14:30:43.347Z,36.50
2022-08-25T14:33:13.733Z,36.57
2022-08-25T14:35:45.470Z,36.64
2022-08-25T14:38:15.176Z,36.71
2022-08-25T14:40:41.905Z,36.74
2022-08-25T14:43:09.526Z,36.78
2022-08-25T14:45:40.126Z,36.85
2022-08-25T14:48:12.519Z,36.87
2022-08-25T14:50:41.001Z,36.83
2022-08-25T14:53:11.004Z,36.72
2022-08-25T14:55:38.282Z,36.62
2022-08-25T14:58:07.263Z,36.59
2022-08-25T15:00:44.735Z,36.52
2022-08-25T15:03:14.859Z,36.41
2022-08-25T15:05:42.021Z,36.29
2022-08-25T15:08:32.938Z,36.24
2022-08-25T15:11:00.330Z,36.22
2022-08-25T15:13:26.919Z,36.13
2022-08-25T15:15:55.323Z,36.04
2022-08-25T15:18:25.238Z,35.92
2022-08-25T15:20:51.810Z,35.70
2022-08-25T15:23:18.582Z,35.44
2022-08-25T15:25:48.364Z,35.29
2022-08-25T15:28:17.414Z,35.28
2022-08-25T15:30:45.681Z,35.35
2022-08-25T15:33:13.932Z,35.36
2022-08-25T15:35:40.950Z,35.30
2022-08-25T15:38:07.774Z,35.21
2022-08-25T15:40:36.899Z,35.13
2022-08-25T15:43:03.545Z,35.08
2022-08-25T15:45:31.395Z,35.02
2022-08-25T15:47:58.043Z,34.97
2022-08-25T15:50:26.378Z,34.92
2022-08-25T15:52:53.329Z,34.84
2022-08-25T15:55:20.593Z,34.74
2022-08-25T15:57:49.570Z,34.65
2022-08-25T16:00:17.622Z,34.54
2022-08-25T16:02:44.749Z,34.44
2022-08-25T16:05:12.589Z,34.33
2022-08-25T16:07:40.541Z,34.24
2022-08-25T16:10:07.561Z,34.13
2022-08-25T16:12:34.061Z,34.01
2022-08-25T16:15:01.196Z,33.91
2022-08-25T16:17:27.784Z,33.80
2022-08-25T16:19:54.395Z,33.68
2022-08-25T16:22:20.969Z,33.58
2022-08-25T16:24:47.601Z,33.46
2022-08-25T16:27:14.437Z,33.33
2022-08-25T16:29:44.087Z,33.15
2022-08-25T16:32:13.570Z,32.99
2022-08-25T16:34:41.352Z,32.85
2022-08-25T16:37:08.082Z,32.71
2022-08-25T16:39:34.697Z,32.56
2022-08-25T16:42:01.297Z,32.42
2022-08-25T16:44:28.001Z,32.25
2022-08-25T16:46:54.819Z,32.11
2022-08-25T16:49:24.190Z,31.95
2022-08-25T16:51:57.584Z,31.79
2022-08-25T16:54:45.127Z,31.61
2022-08-25T16:57:12.908Z,31.43
2022-08-25T16:59:41.883Z,31.24
2022-08-25T17:02:09.278Z,31.03
2022-08-25T17:04:36.665Z,30.76
2022-08-25T17:07:04.304Z,30.51
2022-08-25T17:09:31.901Z,30.25
2022-08-25T17:11:58.505Z,29.98
2022-08-25T17:14:25.566Z,29.71
2022-08-25T17:16:54.509Z,29.42
2022-08-25T17:19:23.637Z,29.14
2022-08-25T17:21:53.082Z,28.86
2022-08-25T17:24:19.775Z,28.57
2022-08-25T17:26:49.279Z,28.27
2022-08-25T17:29:17.189Z,28.00
2022-08-25T17:31:45.493Z,27.73
2022-08-25T17:34:16.418Z,27.48
2022-08-25T17:36:43.476Z,27.23
2022-08-25T17:39:12.839Z,27.01
2022-08-25T17:41:42.522Z,26.79
2022-08-25T17:44:09.147Z,26.58
2022-08-25T17:46:36.929Z,26.37
2022-08-25T17:49:04.364Z,26.18
2022-08-25T17:51:31.850Z,25.99
2022-08-25T17:53:58.822Z,25.80
2022-08-25T17:56:27.253Z,25.63
2022-08-25T17:58:55.611Z,25.47
2022-08-25T18:01:25.864Z,25.31
2022-08-25T18:03:54.333Z,25.15
2022-08-25T18:06:24.240Z,25.00
2022-08-25T18:08:56.329Z,24.84
2022-08-25T18:11:25.985Z,24.69
2022-08-25T18:13:54.537Z,24.55
2022-08-25T18:16:23.474Z,24.42
2022-08-25T18:18:51.843Z,24.26
2022-08-25T18:21:21.393Z,24.13
2022-08-25T18:23:49.269Z,24.03
2022-08-25T18:26:16.566Z,23.90
2022-08-25T18:28:43.960Z,23.83
2022-08-25T18:31:12.376Z,23.75
2022-08-25T18:33:43.949Z,23.68
2022-08-25T18:36:12.147Z,23.58
2022-08-25T18:38:59.580Z,23.49
2022-08-25T18:41:32.399Z,23.39
2022-08-25T18:43:59.181Z,23.29
2022-08-25T18:46:26.084Z,23.19
2022-08-25T18:48:53.608Z,23.10
2022-08-25T18:51:22.821Z,23.00
2022-08-25T18:53:54.472Z,22.91
2022-08-25T18:56:26.544Z,22.82
2022-08-25T18:58:53.373Z,22.71
2022-08-25T19:01:20.422Z,22.61
2022-08-25T19:03:51.483Z,22.53
2022-08-25T19:06:21.665Z,22.44
2022-08-25T19:08:48.469Z,22.34
2022-08-25T19:11:16.704Z,22.25
2022-08-25T19:13:44.331Z,22.16
2022-08-25T19:16:20.358Z,22.10
2022-08-25T19:18:48.364Z,22.03
2022-08-25T19:21:15.282Z,21.97
2022-08-25T19:23:42.114Z,21.90
2022-08-25T19:26:16.926Z,21.83
2022-08-25T19:28:48.888Z,21.74
2022-08-25T19:31:21.677Z,21.66
2022-08-25T19:33:51.019Z,21.59
2022-08-25T19:36:23.078Z,21.51
2022-08-25T19:38:51.926Z,21.44
2022-08-25T19:41:21.620Z,21.38
2022-08-25T19:43:55.987Z,21.32
2022-08-25T19:46:33.336Z,21.26
2022-08-25T19:49:19.217Z,21.20
2022-08-25T19:51:51.053Z,21.14
2022-08-25T19:54:27.775Z,21.07
2022-08-25T19:56:55.676Z,21.02
2022-08-25T19:59:40.573Z,20.99
2022-08-25T20:02:19.707Z,20.92
2022-08-25T20:04:49.730Z,20.87
2022-08-25T20:07:22.146Z,20.85
2022-08-25T20:09:52.311Z,20.79
2022-08-25T20:12:19.858Z,20.72
2022-08-25T20:14:47.876Z,20.67
2022-08-25T20:17:23.627Z,20.59
2022-08-25T20:19:54.252Z,20.52
2022-08-25T20:22:26.361Z,20.45
2022-08-25T20:24:59.343Z,20.37
2022-08-25T20:27:32.604Z,20.29
2022-08-25T20:30:02.550Z,20.22
2022-08-25T20:32:31.939Z,20.15
2022-08-25T20:34:59.963Z,20.09
2022-08-25T20:37:26.728Z,20.02
2022-08-25T20:39:54.385Z,19.95
2022-08-25T20:42:21.168Z,19.91
2022-08-25T20:44:47.986Z,19.85
2022-08-25T20:47:14.922Z,19.80
2022-08-25T20:49:44.363Z,19.75
2022-08-25T20:52:11.442Z,19.70
2022-08-25T20:54:38.685Z,19.66
2022-08-25T20:57:05.685Z,19.61
2022-08-25T20:59:35.126Z,19.57
2022-08-25T21:02:02.264Z,19.51
2022-08-25T21:04:30.485Z,19.47
2022-08-25T21:07:01.536Z,19.42
2022-08-25T21:09:29.474Z,19.37
2022-08-25T21:11:57.094Z,19.33
2022-08-25T21:14:25.248Z,19.29
2022-08-25T21:16:54.074Z,19.24
2022-08-25T21:19:26.884Z,19.21
2022-08-25T21:21:59.981Z,19.17
2022-08-25T21:24:27.761Z,19.11
2022-08-25T21:26:57.114Z,19.07
2022-08-25T21:29:25.947Z,19.01
2022-08-25T21:31:58.764Z,18.95
2022-08-25T21:34:28.821Z,18.89
2022-08-25T21:36:59.287Z,18.83
2022-08-25T21:39:29.099Z,18.76
2022-08-25T21:41:57.943Z,18.69
2022-08-25T21:44:27.835Z,18.63
2022-08-25T21:46:55.473Z,18.57
2022-08-25T21:49:25.153Z,18.52
2022-08-25T21:52:00.439Z,18.47
2022-08-25T21:54:28.783Z,18.40
2022-08-25T21:56:59.375Z,18.34
2022-08-25T21:59:29.097Z,18.28
2022-08-25T22:02:07.949Z,18.21
2022-08-25T22:04:37.896Z,18.17
2022-08-25T22:07:07.399Z,18.13
2022-08-25T22:09:34.949Z,18.10
2022-08-25T22:12:01.678Z,18.06
2022-08-25T22:14:28.581Z,18.04
2022-08-25T22:16:55.393Z,18.02
2022-08-25T22:19:22.981Z,18.01
2022-08-25T22:21:50.850Z,17.98
2022-08-25T22:24:19.243Z,17.95
2022-08-25T22:26:47.432Z,17.92
2022-08-25T22:29:16.232Z,17.89
2022-08-25T22:31:54.108Z,17.84
2022-08-25T22:34:30.749Z,17.79
2022-08-25T22:37:00.081Z,17.71
2022-08-25T22:39:26.931Z,17.65
2022-08-25T22:41:53.607Z,17.58
2022-08-25T22:44:20.121Z,17.52
2022-08-25T22:46:46.627Z,17.46
2022-08-25T22:49:13.343Z,17.38
2022-08-25T22:51:41.001Z,17.32
2022-08-25T22:54:09.575Z,17.27
2022-08-25T22:56:36.769Z,17.21
2022-08-25T22:59:06.748Z,17.16
2022-08-25T23:01:33.753Z,17.10
2022-08-25T23:04:01.449Z,17.06
2022-08-25T23:06:29.165Z,17.01
2022-08-25T23:08:56.297Z,16.97
2022-08-25T23:11:24.155Z,16.92
2022-08-25T23:13:54.510Z,16.88
2022-08-25T23:16:22.897Z,16.84
2022-08-25T23:18:49.599Z,16.81
2022-08-25T23:21:38.221Z,16.76
2022-08-25T23:24:11.087Z,16.70
2022-08-25T23:26:42.704Z,16.66
2022-08-25T23:29:17.524Z,16.62
2022-08-25T23:31:45.857Z,16.57
2022-08-25T23:34:13.906Z,16.53
2022-08-25T23:36:40.888Z,16.48
2022-08-25T23:39:08.970Z,16.43
2022-08-25T23:41:36.143Z,16.40
2022-08-25T23:44:04.786Z,16.36
2022-08-25T23:46:31.619Z,16.33
2022-08-25T23:48:58.795Z,16.30
2022-08-25T23:51:37.208Z,16.27
2022-08-25T23:54:09.549Z,16.24
2022-08-25T23:56:42.225Z,16.22
2022-08-25T23:59:12.628Z,16.22
